Tiempo atmosférico en la estación meteorológica de Salas, Asturias (240 m.)



Fecha
DESCASC
Temp. máxima en grados centígrados (hora)
DESCASC
Temp. mínima en grados centígrados (hora)
DESCASC
Temp. media en grados centígrados
DESCASC
Racha de viento máxima en m/sg (hora)
DESCASC
Velocidad máxima media en intervalos de 10 minutos(hora)
DESCASC
Precipitaciones diarias en mm
DESCASC
Precipitaciones de 00:00 a 06:00 en mm
DESCASC
Precipitaciones de 06:00 a 12:00 en mm
DESCASC
Precipitaciones de 12:00 a 18:00 en mm
DESCASC
Precipitaciones de 18:00 a 24:00 en mm
DESCASC

Gráficas

Temp. máximas Temp. mínimas Temp. medias Precipitaciones Rachas de viento máximas Velocidades máximas media en intervalos de 10 minutos

Datos horarios

Fecha y hora oficial Temperatura (ºC) Velocidad del viento (km/h) Dirección del viento Racha (km/h) Dirección de racha Precipitación (mm) Presión (hPa) Tendencia (hPa) Humedad (%)
2019-04-23 23:00:00 9 17 Oeste 25 Sudoeste 0 -- -- 62
2019-04-23 22:00:00 9.4 7 Sudoeste 32 Noroeste 0 -- -- 64
2019-04-23 21:00:00 9.6 22 Oeste 42 Sudoeste 0 -- -- 68
2019-04-23 20:00:00 11.1 19 Oeste 39 Oeste 0 -- -- 62
2019-04-23 19:00:00 12.3 12 Sudoeste 33 Sudoeste 0 -- -- 60
2019-04-23 18:00:00 12.2 18 Sudoeste 47 Sur 0 -- -- 59
2019-04-23 17:00:00 11.5 19 Sudoeste 54 Sudoeste 0.2 -- -- 63
2019-04-23 16:00:00 13.6 13 Sudoeste 30 Sudoeste 0 -- -- 62
2019-04-23 15:00:00 14.1 9 Nordeste 21 Nordeste 0 -- -- 72
2019-04-23 14:00:00 15.1 6 Este 14 Sur 0 -- -- 66
2019-04-23 13:00:00 15.3 7 Este 12 Nordeste 0 -- -- 71
2019-04-23 12:00:00 13.4 6 Sudeste 14 Este 0 -- -- 81
2019-04-23 11:00:00 10.6 3 Sudeste 7 Sur 0 -- -- 85
2019-04-23 10:00:00 9.5 2 Nordeste 5 Nordeste 0 -- -- 99
2019-04-23 09:00:00 9 3 Este 5 Oeste 1.6 -- -- 98
2019-04-23 08:00:00 8.8 0 Calma 5 Norte 0.2 -- -- 98
2019-04-23 07:00:00 9 2 Sudeste 6 Sudoeste 1.6 -- -- 97
2019-04-23 06:00:00 9.8 3 Oeste 14 Sur 0.2 -- -- 91
2019-04-23 05:00:00 10.6 0 Calma 8 Nordeste 0 -- -- 96
2019-04-23 04:00:00 10.7 3 Nordeste 6 Nordeste 0 -- -- 97
2019-04-23 03:00:00 10.8 3 Este 5 Nordeste 0 -- -- 98
2019-04-23 02:00:00 11.1 2 Oeste 5 Nordeste 0 -- -- 97
2019-04-23 01:00:00 11.3 3 Norte 5 Norte 0.2 -- -- 96
2019-04-23 00:00:00 11.6 2 Noroeste 11 Noroeste 0.2 -- -- 94
2019-04-22 23:00:00 12.5 4 Norte 14 Noroeste 0.6 -- -- 91
2019-04-22 22:00:00 13.4 9 Noroeste 13 Noroeste 0 -- -- 79
2019-04-22 21:00:00 13.5 3 Norte 12 Norte 0 -- -- 81
2019-04-22 20:00:00 15.4 9 Nordeste 21 Norte 0 -- -- 68
2019-04-22 19:00:00 17.5 6 Nordeste 17 Nordeste 0 -- -- 65
2019-04-22 18:00:00 17.4 8 Norte 23 Norte 0 -- -- 63
2019-04-22 17:00:00 18.5 13 Nordeste 24 Nordeste 0 -- -- 63
2019-04-22 16:00:00 21 14 Nordeste 22 Este 0 -- -- 55
2019-04-22 15:00:00 21.5 10 Nordeste 19 Nordeste 0 -- -- 54
2019-04-22 14:00:00 20.8 7 Nordeste 15 Nordeste 0 -- -- 55
2019-04-22 13:00:00 19.4 4 Sudeste 12 Este 0 -- -- 56
2019-04-22 12:00:00 17.2 5 Sudeste 12 Sur 0 -- -- 63
2019-04-22 11:00:00 14 3 Este 6 Este 0 -- -- 70
2019-04-22 10:00:00 10.7 0 Calma 5 Sudeste 0 -- -- 79
2019-04-22 09:00:00 7.3 3 Sudoeste 5 Sur 0 -- -- 94
2019-04-22 08:00:00 5.9 0 Calma 4 Norte 0 -- -- 97
2019-04-22 07:00:00 6 0 Calma 4 Norte 0 -- -- 97
2019-04-22 06:00:00 6.2 3 Noroeste 4 Nordeste 0 -- -- 97
2019-04-22 05:00:00 6.7 0 Calma 5 Oeste 0 -- -- 95
2019-04-22 04:00:00 6.8 0 Calma 8 Noroeste 0 -- -- 95
2019-04-22 03:00:00 7.3 2 Nordeste 3 Nordeste 0 -- -- 94
2019-04-22 02:00:00 8 0 Calma 9 Oeste 0 -- -- 93
2019-04-22 01:00:00 8.6 0 Calma 5 Nordeste 0 -- -- 92
2019-04-22 00:00:00 9.4 2 Nordeste 6 Nordeste 0 -- -- 91
2019-04-21 23:00:00 10.5 2 Noroeste 15 Norte 0 -- -- 86
2019-04-21 22:00:00 12.5 4 Norte 12 Norte 0 -- -- 82
2019-04-21 21:00:00 13.8 5 Norte 13 Norte 0 -- -- 74
2019-04-21 20:00:00 15.5 9 Norte 24 Nordeste 0 -- -- 64
2019-04-21 19:00:00 17.5 12 Nordeste 29 Nordeste 0 -- -- 60
2019-04-21 18:00:00 19 14 Nordeste 27 Norte 0 -- -- 50
2019-04-21 17:00:00 20.3 15 Nordeste 28 Nordeste 0 -- -- 49
2019-04-21 16:00:00 21.3 9 Nordeste 24 Nordeste 0 -- -- 48
2019-04-21 15:00:00 20.7 11 Norte 18 Este 0 -- -- 59
2019-04-21 14:00:00 20.5 9 Este 24 Nordeste 0 -- -- 52
2019-04-21 13:00:00 20.2 8 Nordeste 16 Este 0 -- -- 58
2019-04-21 12:00:00 16.9 6 Sudeste 13 Este 0 -- -- 55
2019-04-21 11:00:00 13.3 13 Este 29 Este 0 -- -- 66
2019-04-21 10:00:00 11.2 4 Sur 7 Sudoeste 0 -- -- 74
2019-04-21 09:00:00 8.5 3 Oeste 6 Oeste 0 -- -- 80
2019-04-21 08:00:00 7 3 Oeste 10 Noroeste 0 -- -- 85
2019-04-21 07:00:00 6.9 3 Oeste 6 Oeste 0 -- -- 87
2019-04-21 06:00:00 6.9 0 Calma 5 Oeste 0 -- -- 87
2019-04-21 05:00:00 7.3 0 Calma 5 Nordeste 0 -- -- 85
2019-04-21 04:00:00 7.8 0 Calma 2 Nordeste 0 -- -- 87
2019-04-21 03:00:00 8.4 0 Calma 4 Nordeste 0 -- -- 86
2019-04-21 02:00:00 9 2 Sudeste 4 Oeste 0 -- -- 86
2019-04-21 01:00:00 9.3 0 Calma 3 Oeste 0 -- -- 85
2019-04-21 00:00:00 10.3 2 Este 4 Este 0 -- -- 83
2019-04-20 23:00:00 11.7 0 Calma 5 Oeste 0 -- -- 79
2019-04-20 22:00:00 13.6 2 Sudeste 10 Noroeste 0 -- -- 72
2019-04-20 21:00:00 14 5 Nordeste 8 Norte 0 -- -- 72
2019-04-20 20:00:00 16.9 3 Nordeste 19 Norte 0 -- -- 58
2019-04-20 19:00:00 18.4 13 Nordeste 24 Nordeste 0 -- -- 52
2019-04-20 18:00:00 19.9 15 Nordeste 29 Nordeste 0 -- -- 50
2019-04-20 17:00:00 21.1 13 Nordeste 27 Norte 0 -- -- 52
2019-04-20 16:00:00 22.1 14 Nordeste 27 Nordeste 0 -- -- 57
2019-04-20 15:00:00 22.4 14 Nordeste 27 Nordeste 0 -- -- 52
2019-04-20 14:00:00 22.3 8 Este 22 Nordeste 0 -- -- 47
2019-04-20 13:00:00 21 5 Sudeste 16 Sur 0 -- -- 51
2019-04-20 12:00:00 18.8 4 Sudeste 8 Sur 0 -- -- 61
2019-04-20 11:00:00 15.4 2 Sur 5 Sudeste 0 -- -- 76
2019-04-20 10:00:00 11.7 2 Sur 3 Sur 0 -- -- 86
2019-04-20 09:00:00 8.5 0 Calma 2 Sudoeste 0 -- -- 96
2019-04-20 08:00:00 7.2 0 Calma 3 Norte 0 -- -- 96
2019-04-20 07:00:00 7.4 0 Calma 3 Este 0 -- -- 96
2019-04-20 06:00:00 7.6 2 Nordeste 4 Este 0 -- -- 95
2019-04-20 05:00:00 7.9 0 Calma 5 Nordeste 0 -- -- 93
2019-04-20 04:00:00 8.3 0 Calma 2 Nordeste 0 -- -- 91
2019-04-20 03:00:00 8.7 2 Nordeste 5 Este 0 -- -- 89
2019-04-20 02:00:00 9 0 Calma 6 Oeste 0 -- -- 87
2019-04-20 01:00:00 9.7 2 Norte 4 Este 0 -- -- 84
2019-04-20 00:00:00 10.6 3 Oeste 8 Oeste 0 -- -- 82
2019-04-19 23:00:00 11.7 0 Calma 12 Norte 0 -- -- 76
2019-04-19 22:00:00 14.1 5 Norte 22 Norte 0 -- -- 66
2019-04-19 21:00:00 15.2 9 Norte 21 Nordeste 0 -- -- 67
2019-04-19 20:00:00 15.7 10 Norte 20 Nordeste 0 -- -- 71
2019-04-19 19:00:00 16.6 10 Norte 20 Norte 0 -- -- 76
2019-04-19 18:00:00 16.9 9 Nordeste 21 Norte 0 -- -- 76
2019-04-19 17:00:00 17.1 14 Nordeste 24 Norte 0 -- -- 77
2019-04-19 16:00:00 16.1 15 Nordeste 21 Nordeste 0 -- -- 80
2019-04-19 15:00:00 16.5 8 Nordeste 14 Nordeste 0 -- -- 79
2019-04-19 14:00:00 15.9 5 Norte 15 Nordeste 0 -- -- 81
2019-04-19 13:00:00 13.9 6 Norte 15 Norte 0 -- -- 90
2019-04-19 12:00:00 12.8 8 Norte 12 Norte 0 -- -- 95
2019-04-19 11:00:00 12.3 8 Norte 14 Nordeste 0 -- -- 97
2019-04-19 10:00:00 12.1 4 Nordeste 15 Nordeste 0 -- -- 97
2019-04-19 09:00:00 11.7 8 Nordeste 18 Norte 0 -- -- 99
2019-04-19 08:00:00 11.3 10 Norte 23 Nordeste 0.6 -- -- 98
2019-04-19 07:00:00 11.1 9 Norte 18 Norte 0 -- -- 98
2019-04-19 06:00:00 11 8 Nordeste 19 Nordeste 0.2 -- -- 99
2019-04-19 05:00:00 11.1 8 Nordeste 16 Norte 1 -- -- 99
2019-04-19 04:00:00 11.1 9 Norte 19 Norte 0.8 -- -- 98
2019-04-19 03:00:00 11.1 10 Norte 17 Norte 0.2 -- -- 97
2019-04-19 02:00:00 11.1 11 Nordeste 16 Nordeste 0.6 -- -- 98
2019-04-19 01:00:00 11 8 Nordeste 13 Norte 0 -- -- 98
2019-04-19 00:00:00 11.1 8 Norte 15 Norte 0 -- -- 97
2019-04-18 23:00:00 11.1 10 Norte 19 Nordeste 0.2 -- -- 97
2019-04-18 22:00:00 11.4 4 Norte 8 Norte 0.2 -- -- 95
2019-04-18 21:00:00 11.6 5 Noroeste 10 Norte 0.4 -- -- 94
2019-04-18 20:00:00 12.1 5 Norte 12 Nordeste 0.6 -- -- 94
2019-04-18 19:00:00 12.6 9 Norte 26 Nordeste 0 -- -- 90
2019-04-18 18:00:00 14.2 13 Nordeste 27 Este 0 -- -- 78
2019-04-18 17:00:00 15.4 12 Nordeste 23 Nordeste 0 -- -- 73
2019-04-18 16:00:00 16.4 12 Nordeste 24 Nordeste 0 -- -- 65
2019-04-18 15:00:00 16.1 14 Nordeste 23 Nordeste 0 -- -- 64
2019-04-18 14:00:00 16.3 11 Nordeste 22 Nordeste 0 -- -- 70
2019-04-18 13:00:00 16.8 5 Este 12 Este 0 -- -- 69
2019-04-18 12:00:00 15.1 5 Sudeste 8 Sudeste 0 -- -- 73
2019-04-18 11:00:00 13.2 2 Sur 6 Este 0 -- -- 82
2019-04-18 10:00:00 10.9 3 Este 9 Oeste 0 -- -- 91
2019-04-18 09:00:00 9.1 3 Oeste 6 Sur 0 -- -- 96
2019-04-18 08:00:00 8.5 2 Oeste 6 Sudoeste 0 -- -- 95
2019-04-18 07:00:00 9.4 3 Norte 9 Sudoeste 0 -- -- 92
2019-04-18 06:00:00 10.6 3 Este 9 Oeste 0 -- -- 93
2019-04-18 05:00:00 10.9 4 Noroeste 10 Noroeste 0 -- -- 89
2019-04-18 04:00:00 10.7 3 Sudoeste 13 Sudoeste 0 -- -- 93
2019-04-18 03:00:00 10.4 3 Sudeste 9 Oeste 0 -- -- 95
2019-04-18 02:00:00 10.2 2 Sudoeste 10 Oeste 0 -- -- 96
2019-04-18 01:00:00 10.5 5 Noroeste 11 Nordeste 0.4 -- -- 94
2019-04-18 00:00:00 11.3 5 Oeste 13 Sudoeste 0.4 -- -- 90
2019-04-17 23:00:00 12.5 5 Sudoeste 14 Sudoeste 0 -- -- 77
2019-04-17 22:00:00 12.7 5 Oeste 17 Oeste 0 -- -- 71
2019-04-17 21:00:00 13.9 3 Noroeste 11 Nordeste 0 -- -- 62
2019-04-17 20:00:00 14.8 4 Sur 15 Norte 0 -- -- 54
2019-04-17 19:00:00 16 6 Nordeste 17 Nordeste 0 -- -- 55
2019-04-17 18:00:00 17.5 10 Nordeste 30 Nordeste 0 -- -- 55
2019-04-17 17:00:00 20.2 19 Nordeste 31 Nordeste 0 -- -- 55
2019-04-17 16:00:00 22.4 11 Norte 18 Nordeste 0 -- -- 49
2019-04-17 15:00:00 21.7 6 Este 35 Sudoeste 0 -- -- 48
2019-04-17 14:00:00 21.9 13 Sur 34 Sudoeste 0 -- -- 41
2019-04-17 13:00:00 19.4 8 Este 22 Este 0 -- -- 53
2019-04-17 12:00:00 16.2 6 Sudoeste 15 Noroeste 0 -- -- 75
2019-04-17 11:00:00 12.7 4 Norte 7 Norte 0 -- -- 88
2019-04-17 10:00:00 10.7 3 Nordeste 7 Norte 0 -- -- 95
2019-04-17 09:00:00 9.2 5 Nordeste 10 Norte 0 -- -- 95
2019-04-17 08:00:00 8.5 3 Nordeste 5 Oeste 0 -- -- 93
2019-04-17 07:00:00 8.9 3 Oeste 8 Oeste 0 -- -- 94
2019-04-17 06:00:00 8.8 2 Oeste 6 Sudoeste 0 -- -- 95
2019-04-17 05:00:00 9.3 3 Oeste 8 Oeste 0 -- -- 93
2019-04-17 04:00:00 9.4 2 Sudoeste 6 Oeste 0 -- -- 93
2019-04-17 03:00:00 9.7 2 Oeste 6 Noroeste 0 -- -- 93
2019-04-17 02:00:00 10 0 Calma 4 Norte 0 -- -- 93
2019-04-17 01:00:00 10.3 3 Oeste 5 Oeste 0 -- -- 93
2019-04-17 00:00:00 10.2 0 Calma 4 Nordeste 0 -- -- 92
2019-04-16 23:00:00 11 0 Calma 4 Sudoeste 0 -- -- 89
2019-04-16 22:00:00 11.7 0 Calma 3 Norte 0 -- -- 87
2019-04-16 21:00:00 12.7 2 Norte 13 Norte 0 -- -- 84
2019-04-16 20:00:00 14.2 7 Norte 14 Norte 0 -- -- 74
2019-04-16 19:00:00 15.3 6 Norte 17 Nordeste 0 -- -- 70
2019-04-16 18:00:00 16.7 8 Nordeste 19 Nordeste 0 -- -- 64
2019-04-16 17:00:00 17.5 10 Nordeste 21 Este 0 -- -- 61
2019-04-16 16:00:00 16.7 12 Nordeste 24 Nordeste 0 -- -- 66
2019-04-16 15:00:00 16.7 11 Nordeste 21 Nordeste 0 -- -- 71
2019-04-16 14:00:00 16.8 9 Nordeste 18 Nordeste 0 -- -- 69
2019-04-16 13:00:00 16.4 8 Este 14 Este 0 -- -- 65
2019-04-16 12:00:00 14.8 5 Sur 9 Sudeste 0 -- -- 74
2019-04-16 11:00:00 12.4 3 Sudeste 6 Sur 0 -- -- 80
2019-04-16 10:00:00 9.1 3 Sur 5 Oeste 0 -- -- 90
2019-04-16 09:00:00 6.4 3 Sudoeste 4 Sudoeste 0 -- -- 99
2019-04-16 08:00:00 5 2 Este 7 Sudoeste 0 -- -- 99
2019-04-16 07:00:00 5.3 3 Oeste 6 Oeste 0 -- -- 100
2019-04-16 06:00:00 5.5 0 Calma 5 Oeste 0 -- -- 100
2019-04-16 05:00:00 5.8 4 Oeste 6 Nordeste 0 -- -- 100
2019-04-16 04:00:00 6.5 0 Calma 5 Oeste 0 -- -- 100
2019-04-16 03:00:00 7 2 Este 9 Oeste 0 -- -- 99
2019-04-16 02:00:00 7.7 2 Sudoeste 5 Norte 0 -- -- 98
2019-04-16 01:00:00 8.4 0 Calma 7 Noroeste 0 -- -- 98
2019-04-16 00:00:00 8.7 3 Este 7 Noroeste 0 -- -- 97
2019-04-15 23:00:00 8.7 4 Nordeste 7 Norte 0 -- -- 97
2019-04-15 22:00:00 9.4 0 Calma 13 Oeste 0 -- -- 94
2019-04-15 21:00:00 11.1 3 Oeste 10 Norte 0 -- -- 95
2019-04-15 20:00:00 12.1 3 Sudeste 13 Oeste 2.2 -- -- 89
2019-04-15 19:00:00 13 6 Oeste 32 Oeste 0.8 -- -- 84
2019-04-15 18:00:00 16.9 12 Oeste 30 Oeste 0 -- -- 60
2019-04-15 17:00:00 15.4 12 Sudoeste 39 Oeste 0 -- -- 63
2019-04-15 16:00:00 14.6 22 Oeste 54 Oeste 0 -- -- 68
2019-04-15 15:00:00 16.4 16 Oeste 45 Oeste 0 -- -- 66
2019-04-15 14:00:00 19.7 8 Norte 22 Oeste 0 -- -- 70
2019-04-15 13:00:00 18.4 9 Sudoeste 18 Oeste 0 -- -- 79
2019-04-15 12:00:00 15.9 5 Sudoeste 18 Oeste 1.8 -- -- 96
2019-04-15 11:00:00 15.4 18 Oeste 33 Oeste 1.4 -- -- 89
2019-04-15 10:00:00 15.1 2 Sudoeste 4 Sudoeste 0 -- -- 86
2019-04-15 09:00:00 13.2 2 Este 7 Oeste 0 -- -- 94
2019-04-15 08:00:00 12.9 0 Calma 4 Noroeste 0 -- -- 94
2019-04-15 07:00:00 12.9 3 Norte 6 Sudoeste 0 -- -- 94
2019-04-15 06:00:00 12.8 4 Oeste 6 Oeste 0 -- -- 93
2019-04-15 05:00:00 12.7 0 Calma 6 Sur 0 -- -- 92
2019-04-15 04:00:00 13.5 0 Calma 3 Oeste 0 -- -- 89
2019-04-15 03:00:00 13.9 0 Calma 5 Nordeste 0 -- -- 88
2019-04-15 02:00:00 14.2 2 Sudoeste 8 Sudoeste 0 -- -- 88
2019-04-15 01:00:00 14.4 0 Calma 5 Nordeste 0 -- -- 85
2019-04-15 00:00:00 15.1 0 Calma 6 Nordeste 0 -- -- 84
2019-04-14 23:00:00 15.9 0 Calma 4 Oeste 0 -- -- 82
2019-04-14 22:00:00 16.5 0 Calma 8 Nordeste 0 -- -- 79
2019-04-14 21:00:00 17.4 7 Norte 13 Norte 0 -- -- 76
2019-04-14 20:00:00 18.7 10 Norte 20 Nordeste 0 -- -- 73
2019-04-14 19:00:00 20.4 9 Nordeste 19 Nordeste 0 -- -- 69
2019-04-14 18:00:00 21.4 10 Nordeste 20 Nordeste 0 -- -- 66
2019-04-14 17:00:00 22.1 11 Nordeste 19 Nordeste 0 -- -- 65
2019-04-14 16:00:00 22.7 6 Nordeste 16 Nordeste 0 -- -- 63
2019-04-14 15:00:00 21.5 5 Sudeste 14 Este 0 -- -- 67
2019-04-14 14:00:00 19.2 8 Nordeste 20 Nordeste 0 -- -- 71
2019-04-14 13:00:00 19.3 13 Nordeste 22 Norte 0 -- -- 70
2019-04-14 12:00:00 20.8 12 Sudoeste 22 Sudoeste 0 -- -- 61
2019-04-14 11:00:00 19.9 14 Sudoeste 22 Sudoeste 0 -- -- 67
2019-04-14 10:00:00 17.7 8 Sudoeste 15 Sudoeste 0 -- -- 73
2019-04-14 09:00:00 14.3 2 Oeste 13 Oeste 0 -- -- 87
2019-04-14 08:00:00 13.5 3 Oeste 9 Noroeste 0 -- -- 88
2019-04-14 07:00:00 13.2 0 Calma 6 Nordeste 0 -- -- 88
2019-04-14 06:00:00 13.1 3 Nordeste 6 Nordeste 0 -- -- 87
2019-04-14 05:00:00 12.8 2 Oeste 7 Oeste 0 -- -- 86
2019-04-14 04:00:00 12.5 0 Calma 4 Sudoeste 0 -- -- 83
2019-04-14 03:00:00 12.8 0 Calma 3 Sudoeste 0 -- -- 81
2019-04-14 02:00:00 13.4 0 Calma 5 Oeste 0 -- -- 81
2019-04-14 01:00:00 13.7 2 Sudoeste 4 Sur 0 -- -- 79
2019-04-14 00:00:00 13.8 0 Calma 12 Noroeste 0 -- -- 74
2019-04-13 23:00:00 15.1 8 Noroeste 14 Noroeste 0 -- -- 65
2019-04-13 22:00:00 15.1 0 Calma 7 Norte 0 -- -- 69
2019-04-13 21:00:00 16.1 3 Norte 10 Norte 0 -- -- 64
2019-04-13 20:00:00 17.2 8 Norte 11 Norte 0 -- -- 59
2019-04-13 19:00:00 18.5 6 Nordeste 16 Nordeste 0 -- -- 59
2019-04-13 18:00:00 19.9 11 Nordeste 21 Nordeste 0 -- -- 53
2019-04-13 17:00:00 20.5 11 Nordeste 24 Nordeste 0 -- -- 50
2019-04-13 16:00:00 20.4 16 Nordeste 27 Nordeste 0 -- -- 54
2019-04-13 15:00:00 21.9 13 Nordeste 22 Este 0 -- -- 50
2019-04-13 14:00:00 21.3 13 Nordeste 20 Este 0 -- -- 57
2019-04-13 13:00:00 19.8 8 Nordeste 13 Este 0 -- -- 56
2019-04-13 12:00:00 17.9 4 Sudeste 7 Sudeste 0 -- -- 60
2019-04-13 11:00:00 14.9 4 Sur 7 Sur 0 -- -- 70
2019-04-13 10:00:00 11.6 3 Sudoeste 5 Sudoeste 0 -- -- 81
2019-04-13 09:00:00 9 0 Calma 3 Oeste 0 -- -- 92
2019-04-13 08:00:00 7.4 0 Calma 4 Este 0 -- -- 94
2019-04-13 07:00:00 7.8 2 Oeste 4 Oeste 0 -- -- 92
2019-04-13 06:00:00 7.3 0 Calma 4 Oeste 0 -- -- 93
2019-04-13 05:00:00 7 0 Calma 5 Oeste 0 -- -- 93
2019-04-13 04:00:00 7.2 0 Calma 4 Oeste 0 -- -- 91
2019-04-13 03:00:00 7.3 0 Calma 4 Nordeste 0 -- -- 89
2019-04-13 02:00:00 7 0 Calma 4 Sudoeste 0 -- -- 90
2019-04-13 01:00:00 7.6 0 Calma 4 Oeste 0 -- -- 86
2019-04-13 00:00:00 8.1 0 Calma 4 Sur 0 -- -- 86
2019-04-12 23:00:00 8.7 0 Calma 4 Nordeste 0 -- -- 85
2019-04-12 22:00:00 9.9 0 Calma 3 Oeste 0 -- -- 82
2019-04-12 21:00:00 11.6 2 Noroeste 13 Norte 0 -- -- 76
2019-04-12 20:00:00 13.9 8 Norte 18 Nordeste 0 -- -- 69
2019-04-12 19:00:00 16 11 Nordeste 19 Nordeste 0 -- -- 65
2019-04-12 18:00:00 17.4 13 Nordeste 21 Nordeste 0 -- -- 61
2019-04-12 17:00:00 17.6 12 Nordeste 22 Nordeste 0 -- -- 58
2019-04-12 16:00:00 18.2 10 Nordeste 19 Nordeste 0 -- -- 56
2019-04-12 15:00:00 17.9 8 Nordeste 19 Este 0 -- -- 55
2019-04-12 14:00:00 16.6 8 Nordeste 16 Sur 0 -- -- 59
2019-04-12 13:00:00 15.3 6 Sudeste 16 Sur 0 -- -- 61
2019-04-12 12:00:00 13.8 6 Este 13 Sudeste 0 -- -- 61
2019-04-12 11:00:00 11.1 3 Sudoeste 8 Sudoeste 0 -- -- 76
2019-04-12 10:00:00 8.3 4 Sur 7 Sur 0 -- -- 89
2019-04-12 09:00:00 5.4 0 Calma 4 Oeste 0 -- -- 100
2019-04-12 08:00:00 5.3 0 Calma 5 Oeste 0 -- -- 96
2019-04-12 07:00:00 6.9 4 Oeste 6 Oeste 0 -- -- 93
2019-04-12 06:00:00 7.7 2 Sudoeste 8 Oeste 0 -- -- 94
2019-04-12 05:00:00 7.7 2 Este 5 Sudeste 0 -- -- 96
2019-04-12 04:00:00 7.7 0 Calma 4 Norte 0 -- -- 98
2019-04-12 03:00:00 7.5 0 Calma 4 Sudeste 0 -- -- 98
2019-04-12 02:00:00 7.5 0 Calma 5 Noroeste 0 -- -- 97
2019-04-12 01:00:00 7.7 3 Nordeste 5 Sudeste 0 -- -- 97
2019-04-12 00:00:00 7.6 0 Calma 3 Noroeste 0 -- -- 95
2019-04-11 23:00:00 8.8 0 Calma 4 Nordeste 0 -- -- 92
2019-04-11 22:00:00 9.2 0 Calma 7 Nordeste 0 -- -- 91
2019-04-11 21:00:00 10.2 3 Nordeste 13 Nordeste 0 -- -- 85
2019-04-11 20:00:00 11.6 5 Nordeste 12 Este 0 -- -- 78
2019-04-11 19:00:00 12 6 Nordeste 15 Nordeste 0 -- -- 75
2019-04-11 18:00:00 12.3 2 Sudeste 17 Nordeste 0 -- -- 73
2019-04-11 17:00:00 12.8 7 Norte 20 Norte 0 -- -- 70
2019-04-11 16:00:00 12.6 8 Oeste 20 Oeste 0 -- -- 72
2019-04-11 15:00:00 13 8 Nordeste 18 Nordeste 0 -- -- 72
2019-04-11 14:00:00 12.4 10 Sudoeste 20 Oeste 0 -- -- 69
2019-04-11 13:00:00 11.9 5 Oeste 14 Noroeste 0 -- -- 69
2019-04-11 12:00:00 11.2 8 Oeste 18 Oeste 0 -- -- 71
2019-04-11 11:00:00 9.2 5 Sur 14 Sur 0 -- -- 84
2019-04-11 10:00:00 8.2 5 Sudoeste 9 Sur 0 -- -- 90
2019-04-11 09:00:00 5.6 4 Oeste 8 Oeste 0 -- -- 96
2019-04-11 08:00:00 4.4 0 Calma 6 Oeste 0 -- -- 96
2019-04-11 07:00:00 4.9 3 Oeste 6 Oeste 0 -- -- 96
2019-04-11 06:00:00 5.6 3 Noroeste 8 Oeste 0 -- -- 97
2019-04-11 05:00:00 5.2 4 Sudoeste 8 Sudoeste 0 -- -- 99
2019-04-11 04:00:00 4.9 0 Calma 3 Sur 0 -- -- 98
2019-04-11 03:00:00 5.4 3 Oeste 8 Oeste 0 -- -- 98
2019-04-11 02:00:00 5.8 3 Oeste 7 Oeste 0 -- -- 98
2019-04-11 01:00:00 6.7 2 Oeste 6 Noroeste 0 -- -- 97
2019-04-11 00:00:00 7.5 2 Nordeste 6 Oeste 0 -- -- 97
2019-04-10 23:00:00 8.2 2 Norte 4 Norte 0 -- -- 94
2019-04-10 22:00:00 8.7 0 Calma 5 Norte 0 -- -- 95
2019-04-10 21:00:00 9.3 0 Calma 8 Nordeste 0 -- -- 92
2019-04-10 20:00:00 10.4 2 Nordeste 9 Nordeste 0 -- -- 82
2019-04-10 19:00:00 11.9 9 Nordeste 17 Nordeste 0 -- -- 72
2019-04-10 18:00:00 11.8 7 Nordeste 17 Nordeste 0 -- -- 75
2019-04-10 17:00:00 13.3 9 Este 19 Nordeste 0 -- -- 71
2019-04-10 16:00:00 12.5 8 Nordeste 16 Nordeste 0 -- -- 78
2019-04-10 15:00:00 11.7 6 Nordeste 16 Nordeste 0 -- -- 80
2019-04-10 14:00:00 11.7 5 Nordeste 18 Nordeste 0 -- -- 81
2019-04-10 13:00:00 11.4 5 Este 14 Sudoeste 0 -- -- 84
2019-04-10 12:00:00 10.9 5 Sudoeste 15 Oeste 0 -- -- 84
2019-04-10 11:00:00 10.3 8 Noroeste 32 Oeste 0 -- -- 87
2019-04-10 10:00:00 9.3 5 Sudoeste 17 Sudoeste 0 -- -- 93
2019-04-10 09:00:00 8.2 8 Sudoeste 30 Sudoeste 0.4 -- -- 96
2019-04-10 08:00:00 7.6 18 Sudoeste 33 Sudoeste 0 -- -- 91
2019-04-10 07:00:00 7.3 15 Sudoeste 25 Sudoeste 0 -- -- 91
2019-04-10 06:00:00 7.7 14 Sudoeste 22 Oeste 0.2 -- -- 89
2019-04-10 05:00:00 7.8 6 Oeste 24 Noroeste 0.6 -- -- 91
2019-04-10 04:00:00 7.7 6 Sudoeste 33 Oeste 1.4 -- -- 88
2019-04-10 03:00:00 8.6 6 Sudoeste 22 Sudoeste 1 -- -- 86
2019-04-10 02:00:00 9 10 Sudoeste 21 Sur 0.2 -- -- 79
2019-04-10 01:00:00 9.2 12 Sudoeste 26 Oeste 0 -- -- 74
2019-04-10 00:00:00 9 8 Oeste 27 Oeste 0 -- -- 78
2019-04-09 23:00:00 9.1 16 Oeste 27 Oeste 0 -- -- 79
2019-04-09 22:00:00 9.3 9 Sudoeste 21 Oeste 0.4 -- -- 80
2019-04-09 21:00:00 11 9 Sudoeste 40 Sudoeste 0 -- -- 68
2019-04-09 20:00:00 12 12 Sudoeste 37 Sudoeste 0 -- -- 67
2019-04-09 19:00:00 13.3 18 Sudoeste 36 Oeste 0 -- -- 60
2019-04-09 18:00:00 13.8 19 Sudoeste 40 Oeste 0 -- -- 54
2019-04-09 17:00:00 14.1 22 Sudoeste 42 Sudoeste 0 -- -- 52
2019-04-09 16:00:00 14.8 26 Sudoeste 45 Sudoeste 0 -- -- 52
2019-04-09 15:00:00 15.1 22 Sudoeste 39 Sudoeste 0 -- -- 50
2019-04-09 14:00:00 13.2 23 Sudoeste 45 Sudoeste 0 -- -- 54
2019-04-09 13:00:00 12.4 20 Sudoeste 38 Sudoeste 0 -- -- 57
2019-04-09 12:00:00 11.8 17 Sudoeste 39 Oeste 0 -- -- 64
2019-04-09 11:00:00 10.5 11 Sur 36 Sudoeste 0 -- -- 70
2019-04-09 10:00:00 8.6 3 Nordeste 12 Nordeste 0 -- -- 90
2019-04-09 09:00:00 6.8 3 Nordeste 6 Este 0 -- -- 97
2019-04-09 08:00:00 6.4 0 Calma 5 Noroeste 0 -- -- 94
2019-04-09 07:00:00 6.2 2 Oeste 5 Oeste 0 -- -- 93
2019-04-09 06:00:00 6.3 3 Nordeste 6 Nordeste 0 -- -- 91
2019-04-09 05:00:00 6.6 2 Sudeste 9 Este 0 -- -- 91
2019-04-09 04:00:00 6.4 2 Norte 8 Oeste 0 -- -- 92
2019-04-09 03:00:00 6.5 3 Noroeste 9 Norte 0 -- -- 90
2019-04-09 02:00:00 6.7 3 Oeste 9 Norte 0 -- -- 93
2019-04-09 01:00:00 6.6 2 Noroeste 7 Noroeste 0 -- -- 94
2019-04-09 00:00:00 6.5 2 Sudoeste 6 Sudoeste 0 -- -- 92
2019-04-08 23:00:00 7.4 0 Calma 15 Oeste 0 -- -- 89
2019-04-08 22:00:00 8.9 3 Norte 16 Sudeste 0 -- -- 87
2019-04-08 21:00:00 10 8 Este 17 Este 0 -- -- 80
2019-04-08 20:00:00 11.2 6 Nordeste 13 Nordeste 0 -- -- 74
2019-04-08 19:00:00 12.7 3 Norte 24 Nordeste 0 -- -- 67
2019-04-08 18:00:00 14.8 4 Este 38 Oeste 0 -- -- 56
2019-04-08 17:00:00 15.8 10 Sudoeste 30 Sudoeste 0 -- -- 44
2019-04-08 16:00:00 16.7 9 Sudoeste 32 Sudoeste 0 -- -- 44
2019-04-08 15:00:00 16.3 15 Sudoeste 33 Sudoeste 0 -- -- 43
2019-04-08 14:00:00 15.5 22 Sudoeste 40 Sudoeste 0 -- -- 44
2019-04-08 13:00:00 14.5 22 Sudoeste 47 Sudoeste 0 -- -- 53
2019-04-08 12:00:00 14 21 Sudoeste 44 Oeste 0 -- -- 54
2019-04-08 11:00:00 12.6 14 Sudoeste 33 Sur 0 -- -- 60
2019-04-08 10:00:00 11.2 11 Sudoeste 23 Sur 0 -- -- 66
2019-04-08 09:00:00 8.8 9 Sudoeste 30 Oeste 0 -- -- 78
2019-04-08 08:00:00 8.1 8 Sudoeste 23 Oeste 0 -- -- 88
2019-04-08 07:00:00 7.9 2 Sudeste 6 Oeste 0 -- -- 96
2019-04-08 06:00:00 8.2 0 Calma 6 Oeste 0 -- -- 96
2019-04-08 05:00:00 9.3 3 Sudeste 20 Oeste 0.4 -- -- 90
2019-04-08 04:00:00 10 14 Oeste 21 Oeste 0 -- -- 86
2019-04-08 03:00:00 8.1 7 Sudoeste 15 Sudoeste 0 -- -- 88
2019-04-08 02:00:00 9.2 3 Sudoeste 14 Oeste 0 -- -- 82
2019-04-08 01:00:00 10.1 4 Sudoeste 24 Sur 0 -- -- 82
2019-04-08 00:00:00 9.6 7 Sur 19 Este 0 -- -- 85
2019-04-07 23:00:00 8 5 Nordeste 11 Nordeste 0.2 -- -- 95
2019-04-07 22:00:00 8 2 Noroeste 9 Sudoeste 0.2 -- -- 96
2019-04-07 21:00:00 8.4 5 Sudoeste 11 Sudoeste 0.4 -- -- 95
2019-04-07 20:00:00 9 2 Oeste 9 Oeste 2.8 -- -- 87
2019-04-07 19:00:00 10.4 3 Noroeste 17 Nordeste 0.6 -- -- 87
2019-04-07 18:00:00 12.6 7 Norte 19 Nordeste 0 -- -- 65
2019-04-07 17:00:00 14.2 11 Nordeste 28 Nordeste 0 -- -- 59
2019-04-07 16:00:00 15.5 13 Nordeste 21 Norte 0 -- -- 54
2019-04-07 15:00:00 15.8 6 Sudoeste 20 Sur 0 -- -- 42
2019-04-07 14:00:00 14.9 13 Sudoeste 28 Sudoeste 0 -- -- 47
2019-04-07 13:00:00 13.4 18 Sudoeste 32 Sudoeste 0 -- -- 49
2019-04-07 12:00:00 12.4 18 Sudoeste 35 Sudoeste 0 -- -- 55
2019-04-07 11:00:00 10.8 17 Sudoeste 33 Sudoeste 0 -- -- 60
2019-04-07 10:00:00 9.1 19 Sudoeste 32 Sur 0 -- -- 65
2019-04-07 09:00:00 6.7 14 Sudoeste 23 Oeste 0 -- -- 71
2019-04-07 08:00:00 5.4 6 Sur 13 Sudeste 0 -- -- 74
2019-04-07 07:00:00 5.9 5 Sudeste 26 Noroeste 0 -- -- 72
2019-04-07 06:00:00 6.2 5 Sudoeste 26 Oeste 0 -- -- 73
2019-04-07 05:00:00 6.7 12 Oeste 27 Noroeste 0 -- -- 73
2019-04-07 04:00:00 6.3 10 Oeste 25 Noroeste 0 -- -- 80
2019-04-07 03:00:00 6.9 14 Oeste 26 Oeste 0 -- -- 78
2019-04-07 02:00:00 6.7 14 Oeste 26 Oeste 0 -- -- 79
2019-04-07 01:00:00 5.5 5 Oeste 18 Oeste 0 -- -- 88
2019-04-07 00:00:00 6.3 13 Oeste 22 Oeste 0 -- -- 82
2019-04-06 23:00:00 6 3 Norte 19 Oeste 1.2 -- -- 92
2019-04-06 22:00:00 6.2 12 Sudoeste 21 Sudoeste 1.6 -- -- 89
2019-04-06 21:00:00 5.9 9 Sudoeste 25 Oeste 2.8 -- -- 91
2019-04-06 20:00:00 6.5 13 Sudoeste 31 Sudoeste 1.4 -- -- 89
2019-04-06 19:00:00 6.2 4 Sudoeste 28 Oeste 2.6 -- -- 92
2019-04-06 18:00:00 7.8 16 Sudoeste 30 Sudoeste 0.6 -- -- 84
2019-04-06 17:00:00 8.4 15 Sudoeste 36 Sudoeste 0.6 -- -- 82
2019-04-06 16:00:00 10.1 22 Sudoeste 36 Sur 0 -- -- 69
2019-04-06 15:00:00 9.6 11 Noroeste 36 Oeste 0.2 -- -- 74
2019-04-06 14:00:00 9.5 14 Oeste 30 Oeste 0.4 -- -- 80
2019-04-06 13:00:00 10.5 13 Sudoeste 35 Sudoeste 0 -- -- 64
2019-04-06 12:00:00 8.8 12 Oeste 32 Oeste 0 -- -- 71
2019-04-06 11:00:00 9 3 Sudoeste 6 Este 0 -- -- 72
2019-04-06 10:00:00 8.2 2 Sudoeste 5 Sudoeste 0 -- -- 74
2019-04-06 09:00:00 4.6 3 Sur 10 Nordeste 0 -- -- 90
2019-04-06 08:00:00 3.7 5 Oeste 8 Noroeste 0 -- -- 89
2019-04-06 07:00:00 4.4 2 Norte 8 Norte 0 -- -- 87
2019-04-06 06:00:00 5.7 0 Calma 12 Oeste 0 -- -- 81
2019-04-06 05:00:00 6.5 5 Oeste 13 Oeste 0 -- -- 75
2019-04-06 04:00:00 5.7 3 Sudoeste 9 Oeste 0 -- -- 79
2019-04-06 03:00:00 5 2 Nordeste 10 Noroeste 0 -- -- 86
2019-04-06 02:00:00 4.5 5 Norte 13 Oeste 0 -- -- 88
2019-04-06 01:00:00 4.7 3 Sur 10 Sudoeste 0 -- -- 85
2019-04-06 00:00:00 5.2 2 Sudoeste 12 Oeste 0 -- -- 82
2019-04-05 23:00:00 6.7 9 Sudoeste 33 Oeste 0 -- -- 75
2019-04-05 22:00:00 7.4 17 Oeste 35 Noroeste 0 -- -- 73
2019-04-05 21:00:00 7.4 10 Sudoeste 18 Oeste 0 -- -- 79
2019-04-05 20:00:00 7.9 11 Oeste 20 Oeste 0 -- -- 77
2019-04-05 19:00:00 7.3 9 Sur 51 Oeste 0.2 -- -- 83
2019-04-05 18:00:00 10.8 10 Noroeste 37 Oeste 0.4 -- -- 67
2019-04-05 17:00:00 12 13 Oeste 36 Oeste 0 -- -- 51
2019-04-05 16:00:00 13.6 17 Sudoeste 37 Oeste 0 -- -- 42
2019-04-05 15:00:00 13.3 15 Sudoeste 35 Oeste 0 -- -- 38
2019-04-05 14:00:00 12.3 17 Sudoeste 36 Sur 0 -- -- 43
2019-04-05 13:00:00 12 17 Sudoeste 35 Sur 0 -- -- 44
2019-04-05 12:00:00 11.9 18 Sudoeste 37 Oeste 0 -- -- 49
2019-04-05 11:00:00 9.7 10 Sur 26 Sudoeste 0 -- -- 62
2019-04-05 10:00:00 7.2 9 Sur 19 Sudoeste 0 -- -- 70
2019-04-05 09:00:00 5.4 7 Oeste 23 Sur 0 -- -- 79
2019-04-05 08:00:00 5.8 13 Sudoeste 25 Sudoeste 0 -- -- 79
2019-04-05 07:00:00 6.2 8 Oeste 28 Oeste 0 -- -- 76
2019-04-05 06:00:00 6.2 14 Oeste 24 Sudoeste 0 -- -- 78
2019-04-05 05:00:00 5.7 9 Oeste 25 Oeste 0 -- -- 90
2019-04-05 04:00:00 6.2 2 Oeste 5 Oeste 0.2 -- -- 94
2019-04-05 03:00:00 6.5 0 Calma 4 Oeste 0.2 -- -- 94
2019-04-05 02:00:00 7 2 Nordeste 7 Oeste 0.4 -- -- 90
2019-04-05 01:00:00 8.3 3 Sudoeste 16 Sur 0 -- -- 76
2019-04-05 00:00:00 9 13 Sudoeste 22 Oeste 0 -- -- 67
2019-04-04 23:00:00 9.2 10 Sur 32 Oeste 0 -- -- 66
2019-04-04 22:00:00 9.5 15 Sudoeste 39 Sudoeste 0 -- -- 64
2019-04-04 21:00:00 10.4 18 Sudoeste 38 Sudoeste 0 -- -- 60
2019-04-04 20:00:00 10.8 14 Sudoeste 29 Sudoeste 0 -- -- 58
2019-04-04 19:00:00 10.5 11 Sudoeste 29 Sudoeste 0 -- -- 62
2019-04-04 18:00:00 10.6 15 Sudoeste 35 Sudoeste 0 -- -- 63
2019-04-04 17:00:00 11.2 7 Sudoeste 45 Sudoeste 0 -- -- 61
2019-04-04 16:00:00 11.2 23 Sudoeste 42 Sudoeste 0 -- -- 56
2019-04-04 15:00:00 11.5 19 Sudoeste 42 Sudoeste 0 -- -- 55
2019-04-04 14:00:00 11.4 25 Sudoeste 47 Sudoeste 0 -- -- 51
2019-04-04 13:00:00 11.3 26 Sudoeste 53 Sudoeste 0 -- -- 55
2019-04-04 12:00:00 9.7 27 Sudoeste 47 Sur 0 -- -- 61
2019-04-04 11:00:00 8.7 22 Sudoeste 39 Oeste 0 -- -- 67
2019-04-04 10:00:00 6.8 17 Sudoeste 28 Sudoeste 0 -- -- 72
2019-04-04 09:00:00 5.2 13 Sudoeste 22 Sudoeste 0 -- -- 81
2019-04-04 08:00:00 4.5 11 Oeste 26 Oeste 0 -- -- 81
2019-04-04 07:00:00 4.7 19 Oeste 32 Oeste 0 -- -- 79
2019-04-04 06:00:00 4.5 20 Oeste 34 Oeste 0 -- -- 84
2019-04-04 05:00:00 3.6 18 Oeste 30 Oeste 0.4 -- -- 92
2019-04-04 04:00:00 3.1 7 Oeste 21 Sudoeste 1.6 -- -- 98
2019-04-04 03:00:00 2.7 2 Sur 19 Sudoeste 0.2 -- -- 97
2019-04-04 02:00:00 3 6 Sudoeste 11 Sudoeste 3 -- -- 96
2019-04-04 01:00:00 2.9 2 Sudoeste 17 Sudoeste 0.4 -- -- 95
2019-04-04 00:00:00 3.5 11 Sudoeste 27 Sudoeste 2 -- -- 93
2019-04-03 23:00:00 3.2 3 Noroeste 11 Sudoeste 0 -- -- 93
2019-04-03 22:00:00 4.9 7 Sudoeste 16 Sudoeste 0.4 -- -- 86
2019-04-03 21:00:00 5.1 7 Sudoeste 26 Sudoeste 0 -- -- 82
2019-04-03 20:00:00 5.6 12 Sudoeste 37 Oeste 0.2 -- -- 81
2019-04-03 19:00:00 7.8 6 Sudeste 28 Oeste 0.2 -- -- 78
2019-04-03 18:00:00 7.7 6 Sudoeste 24 Oeste 1 -- -- 78
2019-04-03 17:00:00 8.8 9 Oeste 26 Oeste 0.2 -- -- 71
2019-04-03 16:00:00 9.2 22 Oeste 45 Oeste 0 -- -- 67
2019-04-03 15:00:00 10 18 Oeste 33 Oeste 0 -- -- 61
2019-04-03 14:00:00 9.3 15 Oeste 35 Oeste 0.2 -- -- 74
2019-04-03 13:00:00 6.7 12 Oeste 38 Sudoeste 0.6 -- -- 87
2019-04-03 12:00:00 7.3 10 Sudoeste 22 Sur 0 -- -- 86
2019-04-03 11:00:00 4.5 10 Sudoeste 21 Sudoeste 2.2 -- -- 91
2019-04-03 10:00:00 5.3 7 Sudoeste 14 Sudoeste 1 -- -- 94
2019-04-03 09:00:00 4.9 8 Sudoeste 22 Oeste 2.2 -- -- 93
2019-04-03 08:00:00 5.5 2 Este 17 Oeste 0.4 -- -- 95
2019-04-03 07:00:00 5.5 6 Oeste 18 Sudoeste 1.2 -- -- 94
2019-04-03 06:00:00 5.3 9 Oeste 19 Oeste 0.2 -- -- 93
2019-04-03 05:00:00 5.7 6 Oeste 23 Oeste 0.6 -- -- 94
2019-04-03 04:00:00 6.1 8 Oeste 15 Sudoeste 1.8 -- -- 92
2019-04-03 03:00:00 6.3 4 Noroeste 27 Oeste 0.8 -- -- 95
2019-04-03 02:00:00 6 6 Oeste 17 Oeste 0 -- -- 93
2019-04-03 01:00:00 7.1 7 Sudoeste 24 Oeste 0.2 -- -- 89
2019-04-03 00:00:00 7.5 3 Sur 14 Oeste 0.2 -- -- 91
2019-04-02 23:00:00 7.8 2 Nordeste 5 Este 0.4 -- -- 93
2019-04-02 22:00:00 8.5 3 Este 13 Oeste 0 -- -- 87
2019-04-02 21:00:00 9.3 6 Sudoeste 18 Oeste 0 -- -- 77
2019-04-02 20:00:00 10.1 9 Oeste 21 Oeste 0 -- -- 77
2019-04-02 19:00:00 10.8 5 Sudeste 25 Oeste 0 -- -- 76
2019-04-02 18:00:00 10.7 7 Sudeste 24 Noroeste 0 -- -- 76
2019-04-02 17:00:00 12.2 9 Noroeste 32 Oeste 0 -- -- 76
2019-04-02 16:00:00 12.9 12 Oeste 28 Sudoeste 0 -- -- 68
2019-04-02 15:00:00 12.5 14 Oeste 32 Noroeste 0 -- -- 71
2019-04-02 14:00:00 12.7 9 Oeste 20 Oeste 0 -- -- 70
2019-04-02 13:00:00 11.2 5 Sur 9 Sur 0 -- -- 80
2019-04-02 12:00:00 9 2 Este 4 Sudoeste 0 -- -- 86
2019-04-02 11:00:00 8.2 3 Oeste 7 Sur 0 -- -- 85
2019-04-02 10:00:00 7.6 3 Sudoeste 5 Sur 0 -- -- 88
2019-04-02 09:00:00 6.5 0 Calma 7 Oeste 0 -- -- 93
2019-04-02 08:00:00 5.8 4 Oeste 8 Noroeste 0 -- -- 94
2019-04-02 07:00:00 5.4 3 Oeste 6 Oeste 0 -- -- 94
2019-04-02 06:00:00 5.7 2 Oeste 5 Noroeste 0 -- -- 93
2019-04-02 05:00:00 5.5 0 Calma 3 Sur 0 -- -- 93
2019-04-02 04:00:00 5.4 0 Calma 6 Nordeste 0 -- -- 94
2019-04-02 03:00:00 6.5 0 Calma 3 Oeste 0 -- -- 91
2019-04-02 02:00:00 6.8 0 Calma 4 Nordeste 0 -- -- 89
2019-04-02 01:00:00 7.4 0 Calma 3 Sur 0 -- -- 86
2019-04-02 00:00:00 8 2 Sur 4 Este 0 -- -- 83
2019-04-01 23:00:00 8.7 0 Calma 3 Nordeste 0 -- -- 80
2019-04-01 22:00:00 10.1 2 Nordeste 4 Sudoeste 0 -- -- 75
2019-04-01 21:00:00 11.5 4 Norte 14 Norte 0 -- -- 72
2019-04-01 20:00:00 13.3 10 Norte 19 Nordeste 0 -- -- 65
2019-04-01 19:00:00 16.5 10 Nordeste 21 Este 0 -- -- 47
2019-04-01 18:00:00 17.6 9 Nordeste 23 Norte 0 -- -- 54
2019-04-01 17:00:00 17.8 14 Nordeste 27 Nordeste 0 -- -- 53
2019-04-01 16:00:00 19.1 17 Este 27 Este 0 -- -- 49
2019-04-01 15:00:00 19.1 12 Nordeste 22 Nordeste 0 -- -- 38
2019-04-01 14:00:00 18.6 9 Nordeste 23 Este 0 -- -- 44
2019-04-01 13:00:00 18.4 6 Este 14 Nordeste 0 -- -- 49
2019-04-01 12:00:00 16 5 Sudeste 10 Sudeste 0 -- -- 55
2019-04-01 11:00:00 12.2 4 Sudoeste 10 Oeste 0 -- -- 71
2019-04-01 10:00:00 8.7 4 Sudoeste 8 Oeste 0 -- -- 82
2019-04-01 09:00:00 5.9 3 Oeste 6 Oeste 0 -- -- 93
2019-04-01 08:00:00 5 3 Oeste 5 Oeste 0 -- -- 95
2019-04-01 07:00:00 5.2 0 Calma 4 Norte 0 -- -- 94
2019-04-01 06:00:00 5.7 3 Oeste 7 Oeste 0 -- -- 95
2019-04-01 05:00:00 6 0 Calma 2 Sudoeste 0 -- -- 94
2019-04-01 04:00:00 6.5 0 Calma 4 Oeste 0 -- -- 91
2019-04-01 03:00:00 7 0 Calma 3 Oeste 0 -- -- 93
2019-04-01 02:00:00 7.7 0 Calma 5 Sudeste 0 -- -- 92
2019-04-01 01:00:00 8.1 3 Oeste 5 Oeste 0 -- -- 91
2019-04-01 00:00:00 8.9 0 Calma 2 Sudoeste 0 -- -- 88
2019-03-31 23:00:00 10.2 0 Calma 5 Sur 0 -- -- 83
2019-03-31 22:00:00 11.8 2 Noroeste 13 Norte 0 -- -- 77
2019-03-31 21:00:00 13.3 10 Norte 18 Norte 0 -- -- 71
2019-03-31 20:00:00 14.9 7 Norte 18 Norte 0 -- -- 67
2019-03-31 19:00:00 16.8 10 Norte 18 Norte 0 -- -- 60
2019-03-31 18:00:00 18.2 13 Nordeste 22 Nordeste 0 -- -- 59
2019-03-31 17:00:00 18.7 14 Norte 24 Norte 0 -- -- 58
2019-03-31 16:00:00 19.4 17 Nordeste 30 Nordeste 0 -- -- 57
2019-03-31 15:00:00 20.4 13 Nordeste 23 Nordeste 0 -- -- 56
2019-03-31 14:00:00 19.7 7 Nordeste 16 Nordeste 0 -- -- 56
2019-03-31 13:00:00 18.2 4 Este 12 Sudeste 0 -- -- 53
2019-03-31 12:00:00 15.5 3 Sur 8 Sur 0 -- -- 62
2019-03-31 11:00:00 11.5 2 Sudoeste 4 Sudoeste 0 -- -- 75
2019-03-31 10:00:00 9.6 0 Calma 7 Sudoeste 0 -- -- 79
2019-03-31 09:00:00 6.9 2 Oeste 5 Oeste 0 -- -- 91
2019-03-31 08:00:00 6.8 2 Oeste 5 Oeste 0 -- -- 90
2019-03-31 07:00:00 7 0 Calma 2 Sudeste 0 -- -- 91
2019-03-31 06:00:00 7.6 0 Calma 4 Sudoeste 0 -- -- 88
2019-03-31 05:00:00 8 0 Calma 3 Este 0 -- -- 88
2019-03-31 03:00:00 9.5 0 Calma 6 Oeste 0 -- -- 85
2019-03-31 01:00:00 9.4 2 Este 7 Noroeste 0 -- -- 85
2019-03-31 00:00:00 9.4 3 Oeste 7 Oeste 0 -- -- 83
2019-03-30 23:00:00 10.3 0 Calma 4 Nordeste 0 -- -- 82
2019-03-30 22:00:00 11.3 0 Calma 6 Nordeste 0 -- -- 78
2019-03-30 21:00:00 12.6 0 Calma 6 Norte 0 -- -- 75
2019-03-30 20:00:00 13.6 4 Noroeste 7 Noroeste 0 -- -- 69
2019-03-30 19:00:00 15.3 3 Nordeste 16 Este 0 -- -- 66
2019-03-30 18:00:00 17.4 5 Sudoeste 31 Este 0 -- -- 58
2019-03-30 17:00:00 15.8 10 Sudeste 27 Sudeste 0.2 -- -- 54
2019-03-30 16:00:00 16.1 5 Sudeste 14 Sur 0 -- -- 61
2019-03-30 15:00:00 17.4 10 Noroeste 23 Norte 0 -- -- 50
2019-03-30 14:00:00 19.3 18 Nordeste 24 Nordeste 0 -- -- 49
2019-03-30 13:00:00 20.2 14 Nordeste 22 Este 0 -- -- 53
2019-03-30 12:00:00 19.6 8 Este 14 Norte 0 -- -- 54
2019-03-30 11:00:00 16.2 3 Sudeste 8 Sur 0 -- -- 61
2019-03-30 10:00:00 12.6 2 Sur 5 Sur 0 -- -- 78
2019-03-30 09:00:00 8.5 3 Sudoeste 9 Sudoeste 0 -- -- 93
2019-03-30 08:00:00 5.2 0 Calma 3 Nordeste 0 -- -- 100
2019-03-30 07:00:00 5.1 0 Calma 3 Nordeste 0 -- -- 100
2019-03-30 06:00:00 5 3 Este 3 Nordeste 0 -- -- 100
2019-03-30 05:00:00 5.5 0 Calma 3 Nordeste 0 -- -- 100
2019-03-30 04:00:00 5.7 0 Calma 2 Nordeste 0 -- -- 99
2019-03-30 03:00:00 6.2 2 Nordeste 3 Nordeste 0 -- -- 99
2019-03-30 02:00:00 6.6 0 Calma 4 Oeste 0 -- -- 98
2019-03-30 01:00:00 7.1 0 Calma 3 Nordeste 0 -- -- 97
2019-03-30 00:00:00 7.3 0 Calma 3 Oeste 0 -- -- 95
2019-03-29 23:00:00 8.2 0 Calma 3 Este 0 -- -- 94
2019-03-29 22:00:00 8.8 0 Calma 2 Este 0 -- -- 90
2019-03-29 21:00:00 10 0 Calma 4 Oeste 0 -- -- 86
2019-03-29 20:00:00 11.5 2 Sudeste 16 Norte 0 -- -- 81
2019-03-29 19:00:00 13.2 9 Norte 16 Norte 0 -- -- 77
2019-03-29 18:00:00 15.3 9 Norte 15 Nordeste 0 -- -- 70
2019-03-29 17:00:00 16.3 11 Nordeste 21 Nordeste 0 -- -- 71
2019-03-29 16:00:00 17.6 12 Nordeste 20 Nordeste 0 -- -- 65
2019-03-29 15:00:00 18.5 13 Nordeste 18 Nordeste 0 -- -- 63
2019-03-29 14:00:00 17.8 9 Nordeste 18 Nordeste 0 -- -- 61
2019-03-29 13:00:00 16.5 8 Norte 15 Nordeste 0 -- -- 59
2019-03-29 12:00:00 15 4 Nordeste 10 Sudeste 0 -- -- 66
2019-03-29 11:00:00 13 4 Este 9 Este 0 -- -- 71
2019-03-29 10:00:00 10.2 3 Sudeste 6 Este 0 -- -- 84
2019-03-29 09:00:00 7.1 2 Este 4 Este 0 -- -- 100
2019-03-29 08:00:00 4.4 0 Calma 4 Este 0 -- -- 100
2019-03-29 07:00:00 4.5 0 Calma 3 Sudoeste 0 -- -- 98
2019-03-29 06:00:00 5 0 Calma 3 Nordeste 0 -- -- 98
2019-03-29 05:00:00 5.9 0 Calma 6 Oeste 0 -- -- 96
2019-03-29 04:00:00 6.3 0 Calma 6 Norte 0 -- -- 94
2019-03-29 03:00:00 7.5 4 Nordeste 8 Nordeste 0 -- -- 94
2019-03-29 02:00:00 8.3 0 Calma 4 Este 0 -- -- 92
2019-03-29 01:00:00 8.3 0 Calma 4 Sudoeste 0 -- -- 93
2019-03-29 00:00:00 8.1 0 Calma 4 Nordeste 0 -- -- 93
2019-03-28 23:00:00 7.8 0 Calma 3 Nordeste 0 -- -- 94
2019-03-28 22:00:00 7.5 0 Calma 13 Norte 0 -- -- 91
2019-03-28 21:00:00 8.6 9 Norte 15 Nordeste 0 -- -- 90
2019-03-28 20:00:00 9.5 5 Noroeste 25 Nordeste 0 -- -- 84
2019-03-28 19:00:00 10.8 15 Nordeste 27 Nordeste 0 -- -- 80
2019-03-28 18:00:00 13.1 16 Nordeste 27 Nordeste 0 -- -- 67
2019-03-28 17:00:00 14.6 17 Nordeste 28 Nordeste 0 -- -- 63
2019-03-28 16:00:00 15.6 15 Nordeste 31 Nordeste 0 -- -- 60
2019-03-28 15:00:00 15.8 17 Nordeste 29 Nordeste 0 -- -- 59
2019-03-28 14:00:00 16.4 15 Nordeste 29 Este 0 -- -- 57
2019-03-28 13:00:00 16.3 11 Este 27 Este 0 -- -- 58
2019-03-28 12:00:00 14.8 12 Nordeste 29 Este 0 -- -- 60
2019-03-28 11:00:00 12.9 6 Sudeste 12 Sudeste 0 -- -- 67
2019-03-28 10:00:00 9.1 3 Sur 7 Sur 0 -- -- 83
2019-03-28 09:00:00 5.4 2 Sudeste 4 Sudeste 0 -- -- 100
2019-03-28 08:00:00 2.6 0 Calma 5 Nordeste 0 -- -- 100
2019-03-28 07:00:00 2.2 0 Calma 4 Nordeste 0 -- -- 100
2019-03-28 06:00:00 2.5 0 Calma 4 Nordeste 0 -- -- 99
2019-03-28 05:00:00 2.8 2 Nordeste 4 Nordeste 0 -- -- 99
2019-03-28 04:00:00 3.2 0 Calma 4 Sudeste 0 -- -- 99
2019-03-28 03:00:00 3.5 0 Calma 4 Este 0 -- -- 98
2019-03-28 02:00:00 4.1 0 Calma 3 Sudeste 0 -- -- 96
2019-03-28 01:00:00 4.5 0 Calma 3 Oeste 0 -- -- 96
2019-03-28 00:00:00 4.9 0 Calma 3 Norte 0 -- -- 92
2019-03-27 23:00:00 5.6 0 Calma 3 Sudoeste 0 -- -- 91
2019-03-27 22:00:00 6.5 0 Calma 9 Noroeste 0 -- -- 88
2019-03-27 21:00:00 7.5 6 Norte 21 Norte 0 -- -- 86
2019-03-27 20:00:00 8.6 10 Norte 25 Nordeste 0 -- -- 80
2019-03-27 19:00:00 10 18 Nordeste 26 Nordeste 0 -- -- 75
2019-03-27 18:00:00 12.3 17 Nordeste 26 Norte 0 -- -- 63
2019-03-27 17:00:00 13.9 8 Norte 35 Nordeste 0 -- -- 58
2019-03-27 16:00:00 15.1 18 Nordeste 30 Nordeste 0 -- -- 59
2019-03-27 15:00:00 15.6 16 Nordeste 32 Nordeste 0 -- -- 58
2019-03-27 14:00:00 15.3 21 Nordeste 33 Norte 0 -- -- 58
2019-03-27 13:00:00 16.1 13 Este 27 Este 0 -- -- 56
2019-03-27 12:00:00 13.7 12 Sudeste 23 Sur 0 -- -- 58
2019-03-27 11:00:00 12.1 6 Sur 11 Sur 0 -- -- 64
2019-03-27 10:00:00 8.9 3 Sur 5 Sur 0 -- -- 78
2019-03-27 09:00:00 4.4 3 Sudoeste 8 Sudoeste 0 -- -- 89
2019-03-27 08:00:00 1.6 0 Calma 3 Este 0 -- -- 96
2019-03-27 07:00:00 1.5 2 Este 6 Oeste 0 -- -- 94
2019-03-27 06:00:00 1.5 0 Calma 4 Sudoeste 0 -- -- 94
2019-03-27 05:00:00 1.9 0 Calma 3 Nordeste 0 -- -- 92
2019-03-27 04:00:00 2 2 Oeste 6 Nordeste 0 -- -- 94
2019-03-27 03:00:00 2.5 2 Este 9 Noroeste 0 -- -- 92
2019-03-27 02:00:00 3.1 0 Calma 6 Este 0 -- -- 90
2019-03-27 01:00:00 3.7 0 Calma 5 Sudeste 0 -- -- 89
2019-03-27 00:00:00 4.1 3 Nordeste 5 Noroeste 0 -- -- 87
2019-03-26 23:00:00 5.3 0 Calma 14 Nordeste 0 -- -- 83
2019-03-26 22:00:00 6.7 7 Norte 20 Norte 0 -- -- 77
2019-03-26 21:00:00 7.8 10 Norte 18 Norte 0 -- -- 74
2019-03-26 20:00:00 8.3 9 Norte 25 Nordeste 0 -- -- 74
2019-03-26 19:00:00 9.3 16 Nordeste 29 Nordeste 0 -- -- 70
2019-03-26 18:00:00 11.3 21 Nordeste 31 Nordeste 0 -- -- 63
2019-03-26 17:00:00 12.9 16 Nordeste 32 Norte 0 -- -- 60
2019-03-26 16:00:00 13.4 21 Nordeste 37 Norte 0 -- -- 58
2019-03-26 15:00:00 14 18 Nordeste 33 Nordeste 0 -- -- 57
2019-03-26 14:00:00 14.5 17 Nordeste 36 Nordeste 0 -- -- 59
2019-03-26 13:00:00 14.2 17 Nordeste 39 Nordeste 0 -- -- 54
2019-03-26 12:00:00 13.5 18 Nordeste 37 Nordeste 0 -- -- 52
2019-03-26 11:00:00 12.7 20 Este 33 Nordeste 0 -- -- 56
2019-03-26 10:00:00 11.3 17 Este 34 Nordeste 0 -- -- 60
2019-03-26 09:00:00 9.7 13 Nordeste 35 Nordeste 0 -- -- 68
2019-03-26 08:00:00 7.8 13 Nordeste 27 Nordeste 0 -- -- 81
2019-03-26 07:00:00 7.7 14 Nordeste 23 Nordeste 0 -- -- 82
2019-03-26 06:00:00 7.6 10 Nordeste 27 Nordeste 0 -- -- 80
2019-03-26 05:00:00 7.7 7 Nordeste 20 Nordeste 0 -- -- 76
2019-03-26 04:00:00 7.7 9 Nordeste 18 Nordeste 0 -- -- 77
2019-03-26 03:00:00 7.4 2 Sudeste 13 Nordeste 0 -- -- 85
2019-03-26 02:00:00 7.4 8 Nordeste 28 Nordeste 0 -- -- 83
2019-03-26 01:00:00 8.2 12 Nordeste 24 Nordeste 0 -- -- 83
2019-03-26 00:00:00 8.1 5 Nordeste 18 Nordeste 0 -- -- 83
2019-03-25 23:00:00 8.7 9 Nordeste 15 Nordeste 0 -- -- 81
2019-03-25 22:00:00 9.2 6 Nordeste 25 Nordeste 0 -- -- 81
2019-03-25 21:00:00 9.1 12 Nordeste 28 Nordeste 0 -- -- 84
2019-03-25 20:00:00 9 13 Norte 24 Norte 0 -- -- 83
2019-03-25 19:00:00 10.1 15 Nordeste 28 Nordeste 0 -- -- 78
2019-03-25 18:00:00 12 17 Nordeste 35 Nordeste 0 -- -- 72
2019-03-25 17:00:00 12.8 13 Nordeste 36 Norte 0 -- -- 71
2019-03-25 16:00:00 13.4 21 Nordeste 40 Nordeste 0 -- -- 72
2019-03-25 15:00:00 13.3 21 Nordeste 40 Nordeste 0 -- -- 71
2019-03-25 14:00:00 14.6 15 Este 27 Nordeste 0 -- -- 70
2019-03-25 13:00:00 13.7 16 Nordeste 31 Nordeste 0 -- -- 69
2019-03-25 12:00:00 13.8 14 Nordeste 28 Nordeste 0 -- -- 71
2019-03-25 11:00:00 12.5 12 Este 27 Nordeste 0 -- -- 77
2019-03-25 10:00:00 11 5 Este 19 Nordeste 0 -- -- 83
2019-03-25 09:00:00 10.1 9 Este 19 Nordeste 0 -- -- 85
2019-03-25 08:00:00 9.5 8 Nordeste 19 Nordeste 0 -- -- 89
2019-03-25 07:00:00 9.5 6 Nordeste 10 Nordeste 0 -- -- 89
2019-03-25 06:00:00 9.4 5 Nordeste 13 Nordeste 0 -- -- 89
2019-03-25 05:00:00 9.5 8 Nordeste 23 Nordeste 0 -- -- 90
2019-03-25 04:00:00 9.6 15 Nordeste 27 Nordeste 0 -- -- 90
2019-03-25 03:00:00 10 13 Norte 18 Norte 0 -- -- 92
2019-03-25 02:00:00 9.9 2 Nordeste 6 Nordeste 0 -- -- 93
2019-03-25 01:00:00 10 3 Este 9 Nordeste 0 -- -- 92
2019-03-25 00:00:00 10 4 Nordeste 9 Nordeste 0 -- -- 92